Flight Track Log - Related Links

Times and Time Zones

All times are in EDT time to prevent confusion due to time zone crossing. See the AWE1578 flight status page for this flight to view local times or setup timezone preferences in your user account.

Time Position Orientation Groundspeed Altitude Reporting Facility
EDT Latitude Longitude Course Direction KTS MPH feet Rate Location/Type
Fri 04:14:22 PM 35.2560 -80.9270 24° Northeast 202 232 2,700  Level FlightAware ADS-B
Fri 04:14:52 PM 35.2810 -80.9130 25° Northeast 213 245 4,000 2,133 Climbing FlightAware ADS-B
Fri 04:15:07 PM 35.2900 -80.9030 42° Northeast 227 261 4,300 1,680 Climbing FlightAware ADS-B
Fri 04:15:17 PM 35.2940 -80.8850 75° East 239 275 4,700 2,400 Climbing FlightAware ADS-B
Fri 04:15:22 PM 35.2940 -80.8810 90° East 241 277 4,900 2,533 Climbing FlightAware ADS-B
Fri 04:16:02 PM 35.2910 -80.8280 94° East 253 291 6,600 2,308 Climbing FlightAware ADS-B
Fri 04:16:27 PM 35.2880 -80.7870 95° East 248 285 7,400 1,037 Climbing FlightAware ADS-B
Fri 04:17:23 PM 35.2840 -80.7070 93° East 258 297 8,000 1,184 Climbing FlightAware ADS-B
Fri 04:17:43 PM 35.2830 -80.6790 92° East 264 304 8,900 2,667 Climbing FlightAware ADS-B
Fri 04:18:08 PM 35.2870 -80.6440 82° East 276 318 10,000 2,123 Climbing FlightAware ADS-B
Fri 04:18:48 PM 35.3010 -80.5730 76° East 330 380 11,200 1,200 Climbing FlightAware ADS-B
Fri 04:19:33 PM 35.3170 -80.5000 75° East 351 404 11,700 353 Climbing FlightAware ADS-B
Fri 04:20:13 PM 35.3320 -80.4340 74° East 351 404 11,700  Level FlightAware ADS-B
Fri 04:20:53 PM 35.3460 -80.3690 75° East 351 404 11,700 6,072 Level FlightAware ADS-B
Fri 04:21:36 PM 35.4086 -80.2353 75° East 384 442 20,100 6,404 Climbing Washington Center
Fri 04:22:37 PM 35.4472 -80.0997 71° East 397 457 22,800 1,983 Climbing Washington Center
Fri 04:23:37 PM 35.4797 -79.9561 74° East 418 481 24,100 1,815 Climbing Washington Center
Fri 04:24:36 PM 35.5206 -79.8028 72° East 445 512 26,400 2,218 Climbing Washington Center
Fri 04:25:36 PM 35.5922 -79.6686 57° Northeast 464 534 28,500 2,231 Climbing Washington Center
Fri 04:26:37 PM 35.6911 -79.5764 37° Northeast 476 548 30,900 689 Climbing Washington Center
Fri 04:32:08 PM 36.3130 -78.9740 37° Northeast 506 582 33,000 340 Climbing FlightAware ADS-B
Fri 04:32:48 PM 36.3820 -78.9090 37° Northeast 506 582 33,000  Level FlightAware ADS-B
Fri 04:33:28 PM 36.4450 -78.8500 37° Northeast 506 582 33,000  Level FlightAware ADS-B
Fri 04:34:08 PM 36.5090 -78.7900 37° Northeast 506 582 33,000  Level FlightAware ADS-B
Fri 04:34:48 PM 36.5730 -78.7300 37° Northeast 506 582 33,000  Level FlightAware ADS-B
Fri 04:35:38 PM 36.7000 -78.6050 38° Northeast 505 581 33,000  Level FlightAware ADS-B
Fri 04:36:18 PM 36.7630 -78.5450 37° Northeast 505 581 33,000  Level FlightAware ADS-B
Fri 04:36:58 PM 36.8270 -78.4850 37° Northeast 505 581 33,000  Level FlightAware ADS-B
Fri 04:37:38 PM 36.8900 -78.4260 37° Northeast 505 581 33,000 -1,412 Level FlightAware ADS-B
Fri 04:38:23 PM 37.0000 -78.3150 39° Northeast 473 544 31,000 -1,333 Descending FlightAware ADS-B
Fri 04:39:08 PM 37.0760 -78.2420 37° Northeast 467 537 31,000  Level FlightAware ADS-B
Fri 04:39:53 PM 37.1530 -78.1670 38° Northeast 465 535 31,000  Level FlightAware ADS-B
Fri 04:40:43 PM 37.2320 -78.0920 37° Northeast 464 534 31,000  Level FlightAware ADS-B
Fri 04:41:23 PM 37.2550 -78.0700 37° Northeast 465 535 31,000  Level FlightAware ADS-B
Fri 04:42:23 PM 37.4080 -77.9220 38° Northeast 461 531 31,000  Level FlightAware ADS-B
Fri 04:43:08 PM 37.4840 -77.8480 38° Northeast 463 533 31,000  Level FlightAware ADS-B
Fri 04:43:48 PM 37.5520 -77.7820 38° Northeast 465 535 31,000  Level FlightAware ADS-B
Fri 04:44:28 PM 37.6220 -77.7180 36° Northeast 467 537 31,000  Level FlightAware ADS-B
Fri 04:45:13 PM 37.7020 -77.6460 35° Northeast 468 539 31,000  Level FlightAware ADS-B
Fri 04:45:53 PM 37.7730 -77.5800 36° Northeast 468 539 31,000  Level FlightAware ADS-B
Fri 04:46:38 PM 37.8500 -77.5100 36° Northeast 467 537 31,000  Level FlightAware ADS-B
Fri 04:47:18 PM 37.9230 -77.4550 31° Northeast 453 521 31,000  Level FlightAware ADS-B
Fri 04:47:58 PM 38.0020 -77.4250 17° North 430 495 31,000  Level FlightAware ADS-B
Fri 04:48:43 PM 38.0850 -77.3930 17° North 415 478 31,000  Level FlightAware ADS-B
Fri 04:49:23 PM 38.1580 -77.3650 17° North 409 471 31,000  Level FlightAware ADS-B
Fri 04:50:08 PM 38.2410 -77.3330 17° North 404 465 31,000  Level FlightAware ADS-B
Fri 04:50:48 PM 38.3100 -77.3040 18° North 409 471 31,000 -273 Level FlightAware ADS-B
Fri 04:51:14 PM 38.3531 -77.2638 36° Northeast 419 482 30,700 -915 Descending FlightAware ADS-B
Fri 04:51:47 PM 38.3943 -77.2027 49° Northeast 417 480 30,100 -1,182 Descending FlightAware ADS-B
Fri 04:52:20 PM 38.4346 -77.1402 51° Northeast 412 474 29,400 -1,182 Descending FlightAware ADS-B
Fri 04:52:53 PM 38.4720 -77.0820 51° Northeast 403 464 28,800 -1,391 Descending FlightAware ADS-B
Fri 04:53:29 PM 38.5172 -77.0116 51° Northeast 404 465 27,800 -1,906 Descending FlightAware ADS-B
Fri 04:54:18 PM 38.5750 -76.9230 50° Northeast 421 484 26,100 -2,237 Descending FlightAware ADS-B
Fri 04:54:28 PM 38.5892 -76.8997 52° Northeast 419 482 25,600 -2,133 Descending FlightAware ADS-B
Fri 04:55:03 PM 38.6280 -76.8390 51° Northeast 409 471 24,500 -2,000 Descending FlightAware ADS-B
Fri 04:55:04 PM 38.6331 -76.8312 50° Northeast 415 478 24,400 -750 Descending FlightAware ADS-B
Fri 04:55:43 PM 38.6760 -76.7650 50° Northeast 398 458 24,000 -490 Descending FlightAware ADS-B
Fri 04:55:53 PM 38.6884 -76.7421 55° Northeast 398 458 24,000  Level FlightAware ADS-B
Fri 04:56:27 PM 38.7127 -76.6667 68° East 408 470 24,000 -486 Level FlightAware ADS-B
Fri 04:57:07 PM 38.7326 -76.5739 75° East 408 470 23,400 -1,114 Descending FlightAware ADS-B
Fri 04:57:37 PM 38.7469 -76.5037 75° East 401 461 22,700 -1,300 Descending FlightAware ADS-B
Fri 04:58:07 PM 38.7610 -76.4352 75° East 388 447 22,100 -1,714 Descending FlightAware ADS-B
Fri 04:58:40 PM 38.7757 -76.3646 75° East 376 433 20,900 -2,824 Descending FlightAware ADS-B
Fri 04:59:15 PM 38.7913 -76.2894 75° East 360 414 18,900 -3,224 Descending FlightAware ADS-B
Fri 04:59:47 PM 38.8042 -76.2254 75° East 346 398 17,300 -2,602 Descending FlightAware ADS-B
Fri 05:00:38 PM 38.8220 -76.1410 75° East 330 380 15,300 -2,381 Descending FlightAware ADS-B
Fri 05:00:50 PM 38.8288 -76.1050 76° East 330 380 14,800 -857 Descending FlightAware ADS-B
Fri 05:01:27 PM 38.8430 -76.0354 75° East 330 380 14,600 -169 Descending FlightAware ADS-B
Fri 05:02:01 PM 38.8561 -75.9712 75° East 330 380 14,600  Level FlightAware ADS-B
Fri 05:02:31 PM 38.8678 -75.9135 75° East 330 380 14,600  Level FlightAware ADS-B
Fri 05:03:02 PM 38.8797 -75.8562 75° East 330 380 14,600  Level FlightAware ADS-B
Fri 05:03:12 PM 38.8856 -75.8381 67° East 330 380 14,600 -316 Level FlightAware ADS-B
Fri 05:03:21 PM 38.8938 -75.8227 56° Northeast 330 380 14,500 -667 Descending FlightAware ADS-B
Fri 05:03:30 PM 38.9028 -75.8105 47° Northeast 329 379 14,400 -857 Descending FlightAware ADS-B
Fri 05:03:49 PM 38.9261 -75.7875 38° Northeast 330 380 14,100 -1,059 Descending FlightAware ADS-B
Fri 05:04:21 PM 38.9653 -75.7511 36° Northeast 328 377 13,500 -1,015 Descending FlightAware ADS-B
Fri 05:04:54 PM 39.0058 -75.7142 35° Northeast 327 376 13,000 -1,000 Descending FlightAware ADS-B
Fri 05:05:21 PM 39.0394 -75.6837 35° Northeast 325 374 12,500 -1,077 Descending FlightAware ADS-B
Fri 05:05:33 PM 39.0553 -75.6732 27° Northeast 327 376 12,300 -1,091 Descending FlightAware ADS-B
Fri 05:05:43 PM 39.0704 -75.6675 16° North 328 377 12,100 -558 Descending FlightAware ADS-B
Fri 05:06:16 PM 39.1182 -75.6609 North 302 348 11,900 -1,000 Descending FlightAware ADS-B
Fri 05:06:49 PM 39.1630 -75.6571 North 290 334 11,000 -1,875 Descending FlightAware ADS-B
Fri 05:07:20 PM 39.2045 -75.6526 North 291 335 9,900 -1,750 Descending FlightAware ADS-B
Fri 05:07:37 PM 39.2272 -75.6501 North 288 331 9,600 -563 Descending FlightAware ADS-B
Fri 05:07:52 PM 39.2474 -75.6481 North 289 333 9,600  Level FlightAware ADS-B
Fri 05:08:08 PM 39.2684 -75.6457 North 289 333 9,600  Level FlightAware ADS-B
Fri 05:08:13 PM 39.2751 -75.6457 360° North 291 335 9,600  Level FlightAware ADS-B
Fri 05:08:20 PM 39.2842 -75.6479 349° North 291 335 9,600  Level FlightAware ADS-B
Fri 05:08:25 PM 39.2904 -75.6510 339° North 290 334 9,600  Level FlightAware ADS-B
Fri 05:08:30 PM 39.2967 -75.6558 329° Northwest 283 326 9,600  Level FlightAware ADS-B
Fri 05:08:47 PM 39.3141 -75.6704 327° Northwest 268 308 9,600 -188 Level FlightAware ADS-B
Fri 05:09:02 PM 39.3295 -75.6831 327° Northwest 258 297 9,500 -563 Descending FlightAware ADS-B
Fri 05:09:19 PM 39.3467 -75.6974 327° Northwest 250 288 9,300 -909 Descending FlightAware ADS-B
Fri 05:09:35 PM 39.3620 -75.7103 327° Northwest 249 287 9,000 -1,161 Descending FlightAware ADS-B
Fri 05:09:50 PM 39.3767 -75.7228 327° Northwest 249 287 8,700 -1,091 Descending FlightAware ADS-B
Fri 05:10:08 PM 39.3930 -75.7369 326° Northwest 249 287 8,400 -1,091 Descending FlightAware ADS-B
Fri 05:10:23 PM 39.4080 -75.7494 327° Northwest 248 285 8,100 -1,161 Descending FlightAware ADS-B
Fri 05:10:39 PM 39.4230 -75.7621 327° Northwest 245 282 7,800 -909 Descending FlightAware ADS-B
Fri 05:10:56 PM 39.4389 -75.7756 327° Northwest 244 281 7,600 -857 Descending FlightAware ADS-B
Fri 05:11:14 PM 39.4560 -75.7903 326° Northwest 242 278 7,300 -1,043 Descending FlightAware ADS-B
Fri 05:11:19 PM 39.4612 -75.7945 328° Northwest 241 277 7,200 -1,333 Descending FlightAware ADS-B
Fri 05:11:23 PM 39.4649 -75.7971 332° Northwest 239 275 7,100 -1,500 Descending FlightAware ADS-B
Fri 05:11:27 PM 39.4689 -75.7990 340° North 237 273 7,000 -857 Descending FlightAware ADS-B
Fri 05:11:30 PM 39.4727 -75.8002 346° North 233 268 7,000 -857 Level FlightAware ADS-B
Fri 05:11:34 PM 39.4763 -75.8005 356° North 231 266 6,900 -1,500 Descending FlightAware ADS-B
Fri 05:11:38 PM 39.4804 -75.8002 North 228 262 6,800 -667 Descending FlightAware ADS-B
Fri 05:11:43 PM 39.4854 -75.7988 12° North 225 259 6,800 -1,091 Level FlightAware ADS-B
Fri 05:11:49 PM 39.4912 -75.7952 26° Northeast 220 253 6,600 -1,091 Descending FlightAware ADS-B
Fri 05:11:54 PM 39.4952 -75.7909 40° Northeast 217 250 6,600  Level FlightAware ADS-B
Fri 05:11:58 PM 39.4974 -75.7875 50° Northeast 217 250 6,600  Level FlightAware ADS-B
Fri 05:12:02 PM 39.4998 -75.7827 57° Northeast 218 251 6,600  Level FlightAware ADS-B
Fri 05:12:06 PM 39.5012 -75.7780 69° East 218 251 6,600  Level FlightAware ADS-B
Fri 05:12:09 PM 39.5020 -75.7737 76° East 218 251 6,600  Level FlightAware ADS-B
Fri 05:12:13 PM 39.5026 -75.7686 81° East 217 250 6,600  Level FlightAware ADS-B
Fri 05:12:18 PM 39.5022 -75.7623 95° East 218 251 6,600  Level FlightAware ADS-B
Fri 05:12:21 PM 39.5013 -75.7581 106° East 218 251 6,600  Level FlightAware ADS-B
Fri 05:12:28 PM 39.4984 -75.7499 115° Southeast 220 253 6,600  Level FlightAware ADS-B
Fri 05:12:32 PM 39.4965 -75.7461 123° Southeast 220 253 6,600  Level FlightAware ADS-B
Fri 05:12:50 PM 39.4861 -75.7257 123° Southeast 223 257 6,600  Level FlightAware ADS-B
Fri 05:13:05 PM 39.4775 -75.7089 124° Southeast 221 254 6,600  Level FlightAware ADS-B
Fri 05:13:21 PM 39.4687 -75.6913 123° Southeast 218 251 6,600  Level FlightAware ADS-B
Fri 05:13:37 PM 39.4598 -75.6735 123° Southeast 218 251 6,600  Level FlightAware ADS-B
Fri 05:13:54 PM 39.4502 -75.6548 124° Southeast 219 252 6,600  Level FlightAware ADS-B
Fri 05:14:10 PM 39.4414 -75.6376 124° Southeast 219 252 6,600  Level FlightAware ADS-B
Fri 05:14:33 PM 39.4287 -75.6127 123° Southeast 218 251 6,600  Level FlightAware ADS-B
Fri 05:14:52 PM 39.4183 -75.5921 123° Southeast 219 252 6,600  Level FlightAware ADS-B
Fri 05:15:09 PM 39.4090 -75.5739 123° Southeast 215 247 6,600  Level FlightAware ADS-B
Fri 05:15:13 PM 39.4069 -75.5696 122° Southeast 213 245 6,600  Level FlightAware ADS-B
Fri 05:15:18 PM 39.4050 -75.5633 111° Southeast 211 243 6,600  Level FlightAware ADS-B
Fri 05:15:26 PM 39.4042 -75.5539 96° East 208 239 6,600  Level FlightAware ADS-B
Fri 05:15:32 PM 39.4048 -75.5465 84° East 208 239 6,600  Level FlightAware ADS-B
Fri 05:15:44 PM 39.4073 -75.5314 78° East 210 242 6,600  Level FlightAware ADS-B
Fri 05:16:00 PM 39.4098 -75.5125 80° East 207 238 6,600  Level FlightAware ADS-B
Fri 05:16:17 PM 39.4128 -75.4912 80° East 208 239 6,600  Level FlightAware ADS-B
Fri 05:16:23 PM 39.4140 -75.4842 77° East 208 239 6,600  Level FlightAware ADS-B
Fri 05:16:27 PM 39.4155 -75.4790 70° East 209 241 6,600  Level FlightAware ADS-B
Fri 05:16:30 PM 39.4167 -75.4756 65° Northeast 208 239 6,600  Level FlightAware ADS-B
Fri 05:16:34 PM 39.4182 -75.4720 62° Northeast 209 241 6,600  Level FlightAware ADS-B
Fri 05:16:47 PM 39.4268 -75.4586 50° Northeast 211 243 6,600  Level FlightAware ADS-B
Fri 05:17:04 PM 39.4385 -75.4447 43° Northeast 212 244 6,600  Level FlightAware ADS-B
Fri 05:17:19 PM 39.4495 -75.4316 43° Northeast 213 245 6,600  Level FlightAware ADS-B
Fri 05:17:34 PM 39.4605 -75.4189 42° Northeast 214 246 6,600  Level FlightAware ADS-B
Fri 05:17:51 PM 39.4728 -75.4045 42° Northeast 213 245 6,600  Level FlightAware ADS-B
Fri 05:18:03 PM 39.4821 -75.3939 41° Northeast 212 244 6,600  Level FlightAware ADS-B
Fri 05:18:11 PM 39.4878 -75.3875 41° Northeast 212 244 6,600  Level FlightAware ADS-B
Fri 05:18:26 PM 39.4988 -75.3746 42° Northeast 214 246 6,600 -194 Level FlightAware ADS-B
Fri 05:18:42 PM 39.5106 -75.3609 42° Northeast 215 247 6,500 -545 Descending FlightAware ADS-B
Fri 05:18:59 PM 39.5231 -75.3461 42° Northeast 214 246 6,300 -563 Descending FlightAware ADS-B
Fri 05:19:14 PM 39.5343 -75.3328 42° Northeast 213 245 6,200 -621 Descending FlightAware ADS-B
Fri 05:19:28 PM 39.5446 -75.3199 44° Northeast 214 246 6,000 -857 Descending FlightAware ADS-B
Fri 05:19:35 PM 39.5492 -75.3148 41° Northeast 215 247 5,900 -1,000 Descending FlightAware ADS-B
Fri 05:19:40 PM 39.5540 -75.3112 30° Northeast 217 250 5,800 -1,333 Descending FlightAware ADS-B
Fri 05:19:44 PM 39.5573 -75.3096 20° North 219 252 5,700 -1,200 Descending FlightAware ADS-B
Fri 05:19:50 PM 39.5633 -75.3084 North 222 255 5,600 -545 Descending FlightAware ADS-B
Fri 05:19:55 PM 39.5685 -75.3087 357° North 223 257 5,600 -667 Level FlightAware ADS-B
Fri 05:19:59 PM 39.5728 -75.3099 348° North 227 261 5,500 -947 Descending FlightAware ADS-B
Fri 05:20:14 PM 39.5882 -75.3161 343° North 230 265 5,300 -900 Descending FlightAware ADS-B
Fri 05:20:19 PM 39.5925 -75.3181 340° North 229 264 5,200 -1,200 Descending FlightAware ADS-B
Fri 05:20:34 PM 39.6081 -75.3254 340° North 229 264 4,900 -968 Descending FlightAware ADS-B
Fri 05:20:50 PM 39.6242 -75.3329 340° North 226 260 4,700 -563 Descending FlightAware ADS-B
Fri 05:21:06 PM 39.6397 -75.3403 340° North 227 261 4,600 -194 Descending FlightAware ADS-B
Fri 05:21:21 PM 39.6545 -75.3474 340° North 223 257 4,600  Level FlightAware ADS-B
Fri 05:21:34 PM 39.6666 -75.3534 339° North 209 241 4,600  Level FlightAware ADS-B
Fri 05:21:47 PM 39.6774 -75.3585 340° North 197 227 4,600  Level FlightAware ADS-B
Fri 05:22:06 PM 39.6943 -75.3662 341° North 195 224 4,600  Level FlightAware ADS-B
Fri 05:22:23 PM 39.7087 -75.3726 341° North 197 227 4,600  Level FlightAware ADS-B
Fri 05:22:30 PM 39.7147 -75.3757 338° Northwest 199 229 4,600  Level FlightAware ADS-B
Fri 05:22:33 PM 39.7175 -75.3777 331° Northwest 202 232 4,600  Level FlightAware ADS-B
Fri 05:22:39 PM 39.7213 -75.3818 320° Northwest 205 236 4,600  Level FlightAware ADS-B
Fri 05:22:42 PM 39.7235 -75.3853 309° West 208 239 4,600  Level FlightAware ADS-B
Fri 05:22:46 PM 39.7254 -75.3892 302° West 212 244 4,600  Level FlightAware ADS-B
Fri 05:22:51 PM 39.7272 -75.3956 290° West 215 247 4,600  Level FlightAware ADS-B
Fri 05:22:55 PM 39.7279 -75.4000 282° West 217 250 4,600  Level FlightAware ADS-B
Fri 05:22:59 PM 39.7281 -75.4052 273° West 217 250 4,600  Level FlightAware ADS-B
Fri 05:23:02 PM 39.7278 -75.4095 265° West 216 249 4,600  Level FlightAware ADS-B
Fri 05:23:07 PM 39.7267 -75.4153 256° West 215 247 4,600  Level FlightAware ADS-B
Fri 05:23:12 PM 39.7252 -75.4215 253° West 213 245 4,600  Level FlightAware ADS-B
Fri 05:23:30 PM 39.7200 -75.4438 253° West 208 239 4,600  Level FlightAware ADS-B
Fri 05:23:46 PM 39.7154 -75.4622 252° West 208 239 4,600  Level FlightAware ADS-B
Fri 05:24:01 PM 39.7109 -75.4809 253° West 208 239 4,600  Level FlightAware ADS-B
Fri 05:24:16 PM 39.7070 -75.4977 253° West 203 234 4,600  Level FlightAware ADS-B
Fri 05:24:32 PM 39.7029 -75.5170 255° West 209 241 4,600  Level FlightAware ADS-B
Fri 05:24:44 PM 39.6996 -75.5312 253° West 208 239 4,600  Level FlightAware ADS-B
Fri 05:24:58 PM 39.6958 -75.5487 254° West 210 242 4,600  Level FlightAware ADS-B
Fri 05:25:14 PM 39.6915 -75.5681 254° West 205 236 4,600  Level FlightAware ADS-B
Fri 05:25:32 PM 39.6869 -75.5887 254° West 211 243 4,600  Level FlightAware ADS-B
Fri 05:25:48 PM 39.6828 -75.6077 254° West 207 238 4,600  Level FlightAware ADS-B
Fri 05:25:58 PM 39.6801 -75.6201 254° West 206 237 4,600  Level FlightAware ADS-B
Fri 05:26:01 PM 39.6794 -75.6244 258° West 208 239 4,600  Level FlightAware ADS-B
Fri 05:26:08 PM 39.6792 -75.6320 268° West 208 239 4,600  Level FlightAware ADS-B
Fri 05:26:12 PM 39.6799 -75.6366 281° West 206 237 4,600 -500 Level FlightAware ADS-B
Fri 05:26:20 PM 39.6829 -75.6459 293° West 205 236 4,500 -923 Descending FlightAware ADS-B
Fri 05:26:25 PM 39.6857 -75.6503 310° West 203 234 4,400 -1,200 Descending FlightAware ADS-B
Fri 05:26:30 PM 39.6896 -75.6543 322° Northwest 199 229 4,300 -1,333 Descending FlightAware ADS-B
Fri 05:26:34 PM 39.6929 -75.6563 335° Northwest 197 227 4,200 -750 Descending FlightAware ADS-B
Fri 05:26:38 PM 39.6967 -75.6577 344° North 194 223 4,200 -750 Level FlightAware ADS-B
Fri 05:26:42 PM 39.7003 -75.6584 351° North 191 220 4,100 -800 Descending FlightAware ADS-B
Fri 05:26:53 PM 39.7096 -75.6577 North 191 220 4,000 -600 Descending FlightAware ADS-B
Fri 05:27:02 PM 39.7180 -75.6563 North 191 220 3,900 -857 Descending FlightAware ADS-B
Fri 05:27:14 PM 39.7286 -75.6545 North 192 221 3,700 -692 Descending FlightAware ADS-B
Fri 05:27:28 PM 39.7406 -75.6528 North 190 219 3,600 -333 Descending FlightAware ADS-B
Fri 05:27:32 PM 39.7439 -75.6520 11° North 188 216 3,600  Level FlightAware ADS-B
Fri 05:27:36 PM 39.7477 -75.6505 17° North 185 213 3,600  Level FlightAware ADS-B
Fri 05:27:40 PM 39.7502 -75.6489 26° Northeast 184 212 3,600  Level FlightAware ADS-B
Fri 05:27:43 PM 39.7525 -75.6471 31° Northeast 184 212 3,600  Level FlightAware ADS-B
Fri 05:27:47 PM 39.7547 -75.6445 42° Northeast 184 212 3,600  Level FlightAware ADS-B
Fri 05:27:51 PM 39.7571 -75.6412 47° Northeast 184 212 3,600  Level FlightAware ADS-B
Fri 05:28:02 PM 39.7636 -75.6318 48° Northeast 181 208 3,600  Level FlightAware ADS-B
Fri 05:28:17 PM 39.7717 -75.6203 47° Northeast 180 207 3,600  Level FlightAware ADS-B
Fri 05:28:29 PM 39.7789 -75.6104 47° Northeast 180 207 3,600  Level FlightAware ADS-B
Fri 05:28:33 PM 39.7808 -75.6068 56° Northeast 181 208 3,600  Level FlightAware ADS-B
Fri 05:28:50 PM 39.7879 -75.5904 61° Northeast 183 211 3,600  Level FlightAware ADS-B
Fri 05:28:56 PM 39.7901 -75.5844 64° Northeast 181 208 3,600  Level FlightAware ADS-B
Fri 05:29:12 PM 39.7947 -75.5692 68° East 176 203 3,600  Level FlightAware ADS-B
Fri 05:29:19 PM 39.7968 -75.5618 70° East 175 201 3,600  Level FlightAware ADS-B
Fri 05:29:31 PM 39.7993 -75.5502 74° East 168 193 3,600  Level FlightAware ADS-B
Fri 05:29:48 PM 39.8023 -75.5339 77° East 166 191 3,600 -375 Level FlightAware ADS-B
Fri 05:30:03 PM 39.8052 -75.5183 76° East 171 197 3,400 -968 Descending FlightAware ADS-B
Fri 05:30:19 PM 39.8081 -75.5031 76° East 168 193 3,100 -909 Descending FlightAware ADS-B
Fri 05:30:36 PM 39.8115 -75.4864 75° East 169 194 2,900 -1,000 Descending FlightAware ADS-B
Fri 05:30:49 PM 39.8141 -75.4730 76° East 167 192 2,600 -1,034 Descending FlightAware ADS-B
Fri 05:31:05 PM 39.8172 -75.4576 75° East 170 196 2,400 -783 Descending FlightAware ADS-B
Fri 05:31:12 PM 39.8184 -75.4512 76° East 170 196 2,300 -857 Descending FlightAware ADS-B
Fri 05:31:26 PM 39.8212 -75.4370 76° East 166 191 2,100 -1,000 Descending FlightAware ADS-B
Fri 05:31:42 PM 39.8241 -75.4215 76° East 162 186 1,800 -938 Descending FlightAware ADS-B
Fri 05:31:58 PM 39.8271 -75.4066 75° East 167 192 1,600 -938 Descending FlightAware ADS-B
Fri 05:32:14 PM 39.8301 -75.3911 76° East 160 184 1,300 -1,000 Descending FlightAware ADS-B
Fri 05:32:22 PM 39.8316 -75.3832 76° East 152 175 1,200 -783 Descending FlightAware ADS-B
Fri 05:32:37 PM 39.8342 -75.3705 75° East 142 163 1,000 -889 Descending FlightAware ADS-B
Fri 05:32:49 PM 39.8361 -75.3609 76° East 134 154 800 -643 Descending FlightAware ADS-B
Fri 05:33:05 PM 39.8383 -75.3491 76° East 128 147 700 -667 Descending FlightAware ADS-B
Fri 05:33:25 PM 39.8410 -75.3346 76° East 123 142 400 -857 Descending FlightAware ADS-B
Fri 05:33:33 PM 39.8421 -75.3291 75° East 122 140 300 -522 Descending FlightAware ADS-B
Fri 05:33:48 PM 39.8443 -75.3184 75° East 121 139 200 -400 Descending FlightAware ADS-B

Login

Don't have an account? Register now (free) for customized features, flight alerts, and more!